CheckWX is a tool to help pilots better visualize weather data.  It is not intended as a substitute for an official pre-flight weather briefing.

07:30:00 UTC

SCCH METAR
Gral. Bernardo O´Higgins Airport
Chillan, Chile
Current

30 mins ago

SCCH 180700Z AUTO 23003KT 210V270 //// R/////// ///////// 06/06 Q1021
Observed
Sep-18 @ 07:00 UTC
Wind
  • 230° at 3 KTS
Visibility
Temperature
C / 43°F
Dewpoint
C / 43°F
Humidity
100%
Altimeter
30.15" Hg
Pressure
1020.92 hPa
Previous

2 hours ago

SCCH 180600Z AUTO 20005KT //// R/////// ///////// 07/06 Q1022
Observed
Sep-18 @ 06:00 UTC
Wind
  • 200° at 5 KTS
Visibility
Temperature
C / 45°F
Dewpoint
C / 43°F
Humidity
93%
Altimeter
30.18" Hg
Pressure
1021.92 hPa
Previous

3 hours ago

SCCH 180500Z AUTO 22006KT //// R/////// ///////// 07/06 Q1021
Observed
Sep-18 @ 05:00 UTC
Wind
  • 220° at 6 KTS
Visibility
Temperature
C / 45°F
Dewpoint
C / 43°F
Humidity
93%
Altimeter
30.15" Hg
Pressure
1020.92 hPa